createdAt,value
2023-02-07T00:00:36.344Z,54.55
2023-02-07T00:03:30.781Z,52.80
2023-02-07T00:06:09.059Z,60.33
2023-02-07T00:08:42.440Z,53.00
2023-02-07T00:11:17.395Z,52.95
2023-02-07T00:13:52.980Z,54.28
2023-02-07T00:16:26.502Z,56.75
2023-02-07T00:19:01.552Z,62.83
2023-02-07T00:21:33.820Z,55.70
2023-02-07T00:24:08.451Z,55.28
2023-02-07T00:26:40.143Z,61.28
2023-02-07T00:29:14.884Z,48.70
2023-02-07T00:31:46.587Z,52.47
2023-02-07T00:34:21.318Z,54.70
2023-02-07T00:36:53.120Z,54.67
2023-02-07T00:39:25.143Z,53.00
2023-02-07T00:41:56.969Z,53.20
2023-02-07T00:44:28.898Z,50.65
2023-02-07T00:47:00.692Z,55.20
2023-02-07T00:49:35.386Z,54.17
2023-02-07T00:52:07.776Z,58.10
2023-02-07T00:54:39.629Z,51.03
2023-02-07T00:57:11.751Z,55.67
2023-02-07T00:59:48.818Z,56.78
2023-02-07T01:02:26.968Z,57.60
2023-02-07T01:05:05.387Z,57.75
2023-02-07T01:07:37.396Z,53.58
2023-02-07T01:10:10.430Z,59.97
2023-02-07T01:12:41.836Z,62.88
2023-02-07T01:15:15.755Z,63.42
2023-02-07T01:17:47.650Z,57.70
2023-02-07T01:20:21.986Z,62.63
2023-02-07T01:22:53.361Z,61.53
2023-02-07T01:25:24.982Z,62.13
2023-02-07T01:27:59.772Z,62.08
2023-02-07T01:30:33.903Z,63.88
2023-02-07T01:33:05.846Z,62.15
2023-02-07T01:35:41.263Z,62.72
2023-02-07T01:38:13.204Z,58.50
2023-02-07T01:40:45.592Z,68.97
2023-02-07T01:43:28.570Z,69.63
2023-02-07T01:46:00.785Z,64.57
2023-02-07T01:48:36.366Z,68.20
2023-02-07T01:51:11.711Z,66.20
2023-02-07T01:53:44.608Z,74.20
2023-02-07T01:56:30.735Z,72.05
2023-02-07T01:59:07.627Z,76.43
2023-02-07T02:01:39.943Z,66.25
2023-02-07T02:04:11.715Z,70.65
2023-02-07T02:07:00.445Z,70.28
2023-02-07T02:09:34.723Z,73.30
2023-02-07T02:12:35.316Z,64.35
2023-02-07T02:15:23.501Z,62.55
2023-02-07T02:18:13.728Z,65.45
2023-02-07T02:21:22.676Z,68.55
2023-02-07T02:24:23.657Z,69.20
2023-02-07T02:27:09.569Z,65.53
2023-02-07T02:30:32.794Z,75.63
2023-02-07T02:33:30.385Z,70.80
2023-02-07T02:36:14.231Z,70.88
2023-02-07T02:38:54.413Z,66.80
2023-02-07T02:41:33.754Z,65.63
2023-02-07T02:44:11.082Z,68.50
2023-02-07T02:46:45.929Z,71.38
2023-02-07T02:49:26.395Z,76.95
2023-02-07T02:52:03.420Z,67.53
2023-02-07T02:54:37.540Z,66.05
2023-02-07T02:57:27.781Z,71.78
2023-02-07T03:00:26.682Z,66.10
2023-02-07T03:03:15.751Z,67.45
2023-02-07T03:06:05.149Z,70.85
2023-02-07T03:08:48.620Z,66.30
2023-02-07T03:11:52.836Z,67.97
2023-02-07T03:14:36.885Z,71.47
2023-02-07T03:17:18.163Z,65.35
2023-02-07T03:19:57.521Z,65.90
2023-02-07T03:22:33.069Z,71.22
2023-02-07T03:25:10.907Z,71.47
2023-02-07T03:27:43.942Z,59.53
2023-02-07T03:30:22.469Z,66.32
2023-02-07T03:33:00.014Z,59.35
2023-02-07T03:35:38.064Z,58.53
2023-02-07T03:38:14.215Z,63.28
2023-02-07T03:40:50.953Z,57.83
2023-02-07T03:43:28.326Z,59.95
2023-02-07T03:46:00.854Z,60.95
2023-02-07T03:48:32.592Z,67.05
2023-02-07T03:51:04.767Z,58.33
2023-02-07T03:53:39.355Z,61.90
2023-02-07T03:56:12.969Z,63.90
2023-02-07T03:58:45.548Z,68.30
2023-02-07T04:01:17.499Z,60.40
2023-02-07T04:03:52.272Z,56.33
2023-02-07T04:06:24.850Z,59.63
2023-02-07T04:09:00.928Z,63.05
2023-02-07T04:11:35.016Z,59.63
2023-02-07T04:14:07.416Z,67.15
2023-02-07T04:16:39.781Z,70.47
2023-02-07T04:19:11.945Z,66.68
2023-02-07T04:21:44.334Z,70.07
2023-02-07T04:24:19.187Z,65.13
2023-02-07T04:26:52.022Z,60.80
2023-02-07T04:29:24.300Z,67.47
2023-02-07T04:31:58.884Z,66.20
2023-02-07T04:34:31.288Z,70.03
2023-02-07T04:37:03.678Z,66.72
2023-02-07T04:39:38.741Z,71.20
2023-02-07T04:42:11.132Z,70.03
2023-02-07T04:44:44.211Z,70.70
2023-02-07T04:47:16.892Z,67.40
2023-02-07T04:49:48.797Z,61.83
2023-02-07T04:52:20.677Z,62.95
2023-02-07T04:54:54.917Z,63.38
2023-02-07T04:57:26.953Z,65.63
2023-02-07T05:00:00.690Z,66.30
2023-02-07T05:02:32.739Z,63.78
2023-02-07T05:05:07.215Z,57.60
2023-02-07T05:07:38.908Z,66.38
2023-02-07T05:10:13.364Z,67.00
2023-02-07T05:12:46.635Z,66.95
2023-02-07T05:15:18.548Z,72.65
2023-02-07T05:17:52.910Z,67.43
2023-02-07T05:20:32.012Z,73.13
2023-02-07T05:23:07.324Z,74.47
2023-02-07T05:25:41.770Z,66.50
2023-02-07T05:28:17.489Z,69.82
2023-02-07T05:30:56.036Z,76.38
2023-02-07T05:33:25.678Z,70.25
2023-02-07T05:36:03.429Z,70.50
2023-02-07T05:38:35.361Z,66.53
2023-02-07T05:41:11.221Z,63.03
2023-02-07T05:43:44.998Z,65.07
2023-02-07T05:46:19.362Z,63.95
2023-02-07T05:48:57.546Z,68.53
2023-02-07T05:51:33.762Z,68.35
2023-02-07T05:54:07.958Z,70.10
2023-02-07T05:56:42.182Z,68.30
2023-02-07T05:59:17.455Z,65.20
2023-02-07T06:01:53.035Z,70.45
2023-02-07T06:04:27.841Z,69.85
2023-02-07T06:07:03.884Z,70.85
2023-02-07T06:09:35.715Z,71.53
2023-02-07T06:12:10.830Z,66.00
2023-02-07T06:14:42.741Z,69.75
2023-02-07T06:17:14.826Z,73.35
2023-02-07T06:19:46.860Z,72.28
2023-02-07T06:22:18.793Z,74.45
2023-02-07T06:24:52.356Z,72.55
2023-02-07T06:27:26.682Z,73.38
2023-02-07T06:29:58.874Z,70.50
2023-02-07T06:32:34.306Z,67.53
2023-02-07T06:35:06.780Z,68.05
2023-02-07T06:37:37.998Z,74.10
2023-02-07T06:40:10.761Z,75.32
2023-02-07T06:42:46.669Z,75.20
2023-02-07T06:45:18.534Z,68.53
2023-02-07T06:47:51.305Z,81.10
2023-02-07T06:50:23.410Z,84.30
2023-02-07T06:52:55.196Z,80.55
2023-02-07T06:55:30.941Z,73.35
2023-02-07T06:58:08.470Z,79.93
2023-02-07T07:00:41.058Z,75.10
2023-02-07T07:03:18.891Z,80.07
2023-02-07T07:05:51.021Z,72.22
2023-02-07T07:08:22.944Z,74.47
2023-02-07T07:10:59.707Z,75.50
2023-02-07T07:13:34.247Z,84.20
2023-02-07T07:16:06.787Z,84.30
2023-02-07T07:18:39.431Z,80.38
2023-02-07T07:21:13.524Z,88.38
2023-02-07T07:23:45.301Z,82.32
2023-02-07T07:26:17.313Z,78.88
2023-02-07T07:28:51.924Z,87.68
2023-02-07T07:31:24.590Z,81.30
2023-02-07T07:33:58.268Z,86.25
2023-02-07T07:36:30.995Z,89.07
2023-02-07T07:39:08.306Z,84.03
2023-02-07T07:41:41.143Z,84.45
2023-02-07T07:44:16.385Z,82.50
2023-02-07T07:46:48.654Z,78.35
2023-02-07T07:49:21.165Z,83.43
2023-02-07T07:51:53.890Z,79.32
2023-02-07T07:54:26.401Z,82.50
2023-02-07T07:57:02.721Z,82.00
2023-02-07T07:59:37.763Z,79.93
2023-02-07T08:02:10.440Z,71.53
2023-02-07T08:04:42.481Z,77.25
2023-02-07T08:07:32.036Z,71.35
2023-02-07T08:10:03.895Z,70.13
2023-02-07T08:12:37.896Z,76.97
2023-02-07T08:15:15.640Z,73.43
2023-02-07T08:17:50.175Z,71.20
2023-02-07T08:20:23.084Z,69.95
2023-02-07T08:22:54.512Z,69.40
2023-02-07T08:25:29.374Z,65.78
2023-02-07T08:28:04.657Z,65.57
2023-02-07T08:30:40.389Z,64.43
2023-02-07T08:33:12.457Z,64.88
2023-02-07T08:35:44.909Z,64.00
2023-02-07T08:38:16.611Z,59.72
2023-02-07T08:40:49.690Z,58.47
2023-02-07T08:43:27.942Z,55.58
2023-02-07T08:46:03.104Z,56.83
2023-02-07T08:48:34.478Z,60.28
2023-02-07T08:51:11.711Z,68.97
2023-02-07T08:53:43.768Z,64.47
2023-02-07T08:56:18.423Z,58.85
2023-02-07T08:58:52.051Z,54.72
2023-02-07T09:01:27.606Z,61.20
2023-02-07T09:03:59.743Z,56.35
2023-02-07T09:06:32.352Z,54.97
2023-02-07T09:09:03.962Z,59.30
2023-02-07T09:11:36.651Z,62.58
2023-02-07T09:14:09.568Z,53.90
2023-02-07T09:16:44.024Z,57.63
2023-02-07T09:19:16.074Z,57.45
2023-02-07T09:21:48.520Z,58.10
2023-02-07T09:24:21.172Z,58.05
2023-02-07T09:26:53.338Z,52.83
2023-02-07T09:29:25.322Z,50.88
2023-02-07T09:31:59.644Z,56.97
2023-02-07T09:34:33.384Z,52.35
2023-02-07T09:37:06.458Z,51.53
2023-02-07T09:39:43.177Z,52.70
2023-02-07T09:42:27.774Z,51.47
2023-02-07T09:45:05.306Z,48.10
2023-02-07T09:47:44.735Z,49.05
2023-02-07T09:50:21.837Z,47.83
2023-02-07T09:53:00.139Z,50.67
2023-02-07T09:55:48.298Z,45.60
2023-02-07T09:58:30.974Z,45.50
2023-02-07T10:01:09.439Z,47.50
2023-02-07T10:03:50.293Z,42.45
2023-02-07T10:06:29.216Z,40.75
2023-02-07T10:09:03.688Z,41.35
2023-02-07T10:11:48.805Z,42.05
2023-02-07T10:14:51.990Z,39.70
2023-02-07T10:17:35.766Z,38.67
2023-02-07T10:20:35.593Z,40.30
2023-02-07T10:23:34.082Z,42.65
2023-02-07T10:26:20.036Z,40.70
2023-02-07T10:29:19.091Z,42.72
2023-02-07T10:31:55.053Z,45.72
2023-02-07T10:34:31.156Z,39.80
2023-02-07T10:37:18.669Z,44.25
2023-02-07T10:39:58.058Z,46.28
2023-02-07T10:42:34.443Z,41.20
2023-02-07T10:45:08.625Z,42.55
2023-02-07T10:47:45.088Z,42.03
2023-02-07T10:50:29.280Z,42.00
2023-02-07T10:53:05.889Z,36.75
2023-02-07T10:55:46.936Z,38.03
2023-02-07T10:58:24.024Z,39.63
2023-02-07T11:01:01.471Z,43.72
2023-02-07T11:03:33.247Z,37.15
2023-02-07T11:09:28.134Z,44.15
2023-02-07T11:12:00.621Z,42.45
2023-02-07T11:14:34.890Z,44.45
2023-02-07T11:17:08.622Z,44.47
2023-02-07T11:19:41.948Z,41.38
2023-02-07T11:22:22.655Z,39.30
2023-02-07T11:25:05.737Z,37.38
2023-02-07T11:27:42.298Z,41.40
2023-02-07T11:30:22.623Z,38.85
2023-02-07T11:33:00.737Z,37.40
2023-02-07T11:35:33.755Z,38.10
2023-02-07T11:38:15.541Z,35.22
2023-02-07T11:40:53.495Z,33.50
2023-02-07T11:43:26.225Z,36.67
2023-02-07T11:46:07.194Z,39.20
2023-02-07T11:48:43.742Z,39.83
2023-02-07T11:51:22.513Z,38.58
2023-02-07T11:54:00.945Z,42.38
2023-02-07T11:56:42.246Z,36.20
2023-02-07T11:59:21.766Z,42.85
2023-02-07T12:01:57.447Z,37.60
2023-02-07T12:04:33.855Z,37.85
2023-02-07T12:07:17.288Z,37.50
2023-02-07T12:09:56.408Z,39.17
2023-02-07T12:12:42.486Z,36.63
2023-02-07T12:15:21.061Z,35.40
2023-02-07T12:18:02.781Z,38.50
2023-02-07T12:20:38.436Z,38.45
2023-02-07T12:23:40.915Z,35.92
2023-02-07T12:26:18.146Z,37.42
2023-02-07T12:29:13.990Z,36.88
2023-02-07T12:31:58.224Z,35.25
2023-02-07T12:34:36.077Z,33.08
2023-02-07T12:37:20.939Z,33.92
2023-02-07T12:40:02.952Z,32.97
2023-02-07T12:42:41.855Z,32.50
2023-02-07T12:45:34.315Z,33.53
2023-02-07T12:48:16.175Z,35.38
2023-02-07T12:51:17.094Z,39.05
2023-02-07T12:54:09.376Z,33.20
2023-02-07T12:56:56.601Z,32.30
2023-02-07T12:59:41.577Z,33.05
2023-02-07T13:02:33.741Z,33.72
2023-02-07T13:05:32.809Z,31.95
2023-02-07T13:08:17.306Z,30.15
2023-02-07T13:11:02.701Z,33.30
2023-02-07T13:13:41.499Z,34.25
2023-02-07T13:16:21.393Z,31.10
2023-02-07T13:19:01.103Z,29.58
2023-02-07T13:21:44.246Z,32.47
2023-02-07T13:24:23.039Z,30.92
2023-02-07T13:27:00.846Z,31.33
2023-02-07T13:29:35.986Z,35.47
2023-02-07T13:32:25.037Z,32.70
2023-02-07T13:35:04.845Z,32.15
2023-02-07T13:37:45.205Z,31.17
2023-02-07T13:40:40.776Z,31.13
2023-02-07T13:43:19.653Z,30.70
2023-02-07T13:46:02.520Z,32.50
2023-02-07T13:48:41.364Z,29.05
2023-02-07T13:51:25.564Z,32.05
2023-02-07T13:54:05.287Z,31.23
2023-02-07T13:56:51.644Z,27.75
2023-02-07T13:59:43.507Z,31.10
2023-02-07T14:02:26.955Z,30.48
2023-02-07T14:05:10.270Z,29.92
2023-02-07T14:07:46.508Z,29.75
2023-02-07T14:10:46.222Z,29.83
2023-02-07T14:13:36.861Z,32.15
2023-02-07T14:16:13.406Z,26.58
2023-02-07T14:18:51.262Z,27.77
2023-02-07T14:21:53.256Z,29.73
2023-02-07T14:24:36.785Z,34.10
2023-02-07T14:27:30.589Z,31.20
2023-02-07T14:30:21.719Z,30.25
2023-02-07T14:33:16.663Z,30.67
2023-02-07T14:36:09.403Z,30.63
2023-02-07T14:38:46.402Z,32.15
2023-02-07T14:41:41.615Z,33.40
2023-02-07T14:44:28.046Z,29.75
2023-02-07T14:47:03.069Z,30.23
2023-02-07T14:49:40.351Z,34.22
2023-02-07T14:52:17.513Z,30.52
2023-02-07T14:54:54.910Z,33.58
2023-02-07T14:57:46.913Z,33.80
2023-02-07T15:00:31.796Z,37.33
2023-02-07T15:03:09.795Z,34.90
2023-02-07T15:05:52.278Z,29.60
2023-02-07T15:08:37.106Z,33.47
2023-02-07T15:11:38.281Z,35.78
2023-02-07T15:14:50.160Z,34.63
2023-02-07T15:17:28.847Z,31.08
2023-02-07T15:20:07.155Z,35.30
2023-02-07T15:22:40.659Z,25.58
2023-02-07T15:25:27.055Z,29.65
2023-02-07T15:28:11.037Z,28.80
2023-02-07T15:31:19.475Z,30.27
2023-02-07T15:33:55.976Z,27.83
2023-02-07T15:36:39.504Z,30.65
2023-02-07T15:39:19.629Z,29.65
2023-02-07T15:41:55.944Z,30.08
2023-02-07T15:44:43.955Z,30.77
2023-02-07T15:47:36.652Z,27.77
2023-02-07T15:50:20.843Z,34.78
2023-02-07T15:52:57.472Z,31.83
2023-02-07T15:55:37.668Z,33.80
2023-02-07T15:58:19.762Z,33.78
2023-02-07T16:00:53.158Z,33.17
2023-02-07T16:03:47.083Z,28.70
2023-02-07T16:06:25.173Z,33.80
2023-02-07T16:09:12.859Z,32.47
2023-02-07T16:11:45.835Z,29.52
2023-02-07T16:14:25.953Z,32.72
2023-02-07T16:17:00.444Z,32.33
2023-02-07T16:19:49.011Z,37.00
2023-02-07T16:22:33.414Z,28.52
2023-02-07T16:25:06.576Z,31.67
2023-02-07T16:27:48.349Z,34.53
2023-02-07T16:30:24.178Z,36.22
2023-02-07T16:33:17.219Z,32.80
2023-02-07T16:35:52.898Z,36.88
2023-02-07T16:38:25.379Z,49.72
2023-02-07T16:41:06.338Z,50.75
2023-02-07T16:43:46.451Z,39.42
2023-02-07T16:46:21.858Z,41.72
2023-02-07T16:49:04.620Z,38.05
2023-02-07T16:51:45.750Z,31.85
2023-02-07T16:54:25.038Z,29.48
2023-02-07T16:57:01.424Z,29.67
2023-02-07T16:59:34.837Z,29.23
2023-02-07T17:02:17.291Z,31.58
2023-02-07T17:04:49.838Z,32.33
2023-02-07T17:07:36.231Z,30.00
2023-02-07T17:10:23.274Z,32.17
2023-02-07T17:13:05.182Z,29.63
2023-02-07T17:15:39.381Z,34.42
2023-02-07T17:18:13.462Z,29.67
2023-02-07T17:21:11.988Z,35.55
2023-02-07T17:23:49.585Z,34.22
2023-02-07T17:26:27.778Z,33.80
2023-02-07T17:29:03.056Z,38.22
2023-02-07T17:31:35.315Z,33.35
2023-02-07T17:34:08.368Z,30.58
2023-02-07T17:36:41.113Z,30.50
2023-02-07T17:39:25.994Z,27.10
2023-02-07T17:42:07.594Z,31.98
2023-02-07T17:44:40.674Z,27.70
2023-02-07T17:47:13.110Z,28.50
2023-02-07T17:49:45.949Z,29.17
2023-02-07T17:52:18.148Z,27.27
2023-02-07T17:55:00.911Z,26.48
2023-02-07T17:57:33.187Z,26.88
2023-02-07T18:00:06.468Z,31.60
2023-02-07T18:02:40.475Z,30.63
2023-02-07T18:05:13.360Z,30.40
2023-02-07T18:07:51.474Z,31.38
2023-02-07T18:10:32.390Z,33.08
2023-02-07T18:13:04.788Z,29.33
2023-02-07T18:15:37.505Z,32.45
2023-02-07T18:18:09.655Z,30.80
2023-02-07T18:20:42.253Z,30.08
2023-02-07T18:23:15.754Z,35.50
2023-02-07T18:25:54.435Z,33.08
2023-02-07T18:28:26.462Z,34.50
2023-02-07T18:31:00.472Z,33.25
2023-02-07T18:33:36.811Z,35.05
2023-02-07T18:36:10.520Z,32.00
2023-02-07T18:38:47.999Z,35.92
2023-02-07T18:41:40.323Z,35.03
2023-02-07T18:44:12.839Z,37.22
2023-02-07T18:46:45.080Z,36.72
2023-02-07T18:49:30.928Z,34.78
2023-02-07T18:52:03.078Z,34.60
2023-02-07T18:54:36.663Z,33.10
2023-02-07T18:57:11.804Z,38.10
2023-02-07T18:59:52.014Z,40.75
2023-02-07T19:02:29.288Z,39.38
2023-02-07T19:05:06.860Z,37.72
2023-02-07T19:07:44.516Z,44.65
2023-02-07T19:10:17.696Z,44.25
2023-02-07T19:13:06.180Z,40.72
2023-02-07T19:15:50.508Z,44.25
2023-02-07T19:18:23.195Z,45.72
2023-02-07T19:20:55.361Z,51.42
2023-02-07T19:23:31.136Z,47.85
2023-02-07T19:26:03.652Z,50.70
2023-02-07T19:28:41.178Z,51.58
2023-02-07T19:31:18.542Z,49.28
2023-02-07T19:34:06.276Z,53.88
2023-02-07T19:36:38.197Z,52.83
2023-02-07T19:39:31.256Z,49.90
2023-02-07T19:42:08.317Z,51.03
2023-02-07T19:44:44.937Z,49.67
2023-02-07T19:47:17.115Z,50.88
2023-02-07T19:49:52.186Z,52.50
2023-02-07T19:52:26.034Z,54.15
2023-02-07T19:54:58.853Z,57.67
2023-02-07T19:57:31.076Z,58.15
2023-02-07T20:00:07.322Z,56.03
2023-02-07T20:02:39.775Z,51.58
2023-02-07T20:05:12.443Z,55.30
2023-02-07T20:07:44.754Z,54.45
2023-02-07T20:10:17.530Z,50.67
2023-02-07T20:12:49.856Z,49.20
2023-02-07T20:15:25.266Z,57.35
2023-02-07T20:17:57.479Z,51.25
2023-02-07T20:20:30.238Z,55.83
2023-02-07T20:23:02.460Z,51.78
2023-02-07T20:25:37.899Z,50.17
2023-02-07T20:28:11.389Z,56.30
2023-02-07T20:30:49.653Z,53.50
2023-02-07T20:33:21.761Z,53.92
2023-02-07T20:35:57.402Z,54.28
2023-02-07T20:38:29.784Z,52.70
2023-02-07T20:41:10.032Z,48.42
2023-02-07T20:43:43.138Z,50.90
2023-02-07T20:46:18.574Z,51.78
2023-02-07T20:48:50.922Z,49.97
2023-02-07T20:51:24.206Z,48.83
2023-02-07T20:54:00.122Z,56.75
2023-02-07T20:56:33.831Z,56.55
2023-02-07T20:59:06.270Z,50.75
2023-02-07T21:01:42.726Z,56.65
2023-02-07T21:04:15.024Z,54.25
2023-02-07T21:06:48.221Z,54.85
2023-02-07T21:09:20.900Z,53.85
2023-02-07T21:11:55.646Z,57.90
2023-02-07T21:14:31.032Z,57.22
2023-02-07T21:17:09.556Z,64.65
2023-02-07T21:19:41.880Z,62.08
2023-02-07T21:22:14.255Z,61.85
2023-02-07T21:24:46.022Z,61.42
2023-02-07T21:27:18.176Z,71.13
2023-02-07T21:29:49.987Z,60.00
2023-02-07T21:32:24.949Z,63.40
2023-02-07T21:34:56.598Z,64.90
2023-02-07T21:37:59.057Z,63.80
2023-02-07T21:40:30.954Z,62.88
2023-02-07T21:43:03.127Z,66.88
2023-02-07T21:45:41.490Z,61.25
2023-02-07T21:48:49.752Z,69.82
2023-02-07T21:51:39.078Z,62.63
2023-02-07T21:54:15.931Z,65.47
2023-02-07T21:56:48.066Z,65.82
2023-02-07T21:59:22.743Z,64.68
2023-02-07T22:01:55.948Z,64.28
2023-02-07T22:04:32.156Z,61.08
2023-02-07T22:07:03.739Z,66.30
2023-02-07T22:09:35.680Z,74.55
2023-02-07T22:12:10.585Z,70.00
2023-02-07T22:14:45.042Z,74.03
2023-02-07T22:17:16.260Z,69.07
2023-02-07T22:19:54.181Z,75.93
2023-02-07T22:22:25.547Z,70.25
2023-02-07T22:24:57.569Z,75.18
2023-02-07T22:27:29.031Z,69.07
2023-02-07T22:33:00.695Z,71.07
2023-02-07T22:35:39.478Z,71.45
2023-02-07T22:38:12.213Z,74.68
2023-02-07T22:40:45.864Z,77.97
2023-02-07T22:43:22.126Z,71.88
2023-02-07T22:45:55.976Z,73.88
2023-02-07T22:48:27.433Z,72.50
2023-02-07T22:51:02.720Z,70.05
2023-02-07T22:53:34.024Z,76.95
2023-02-07T22:56:08.888Z,80.35
2023-02-07T22:58:40.843Z,77.68
2023-02-07T23:01:23.126Z,67.30
2023-02-07T23:03:55.628Z,78.47
2023-02-07T23:06:32.714Z,67.75
2023-02-07T23:09:06.570Z,74.53
2023-02-07T23:11:39.516Z,67.97
2023-02-07T23:14:10.848Z,80.65
2023-02-07T23:16:43.344Z,78.60
2023-02-07T23:19:17.630Z,79.93
2023-02-07T23:21:52.218Z,78.00
2023-02-07T23:24:23.952Z,83.30
2023-02-07T23:26:55.866Z,85.32
2023-02-07T23:29:34.106Z,80.38
2023-02-07T23:32:11.216Z,78.82
2023-02-07T23:34:44.444Z,80.75
2023-02-07T23:37:19.613Z,79.20
2023-02-07T23:39:51.365Z,82.22
2023-02-07T23:42:23.657Z,81.20
2023-02-07T23:44:55.366Z,76.88
2023-02-07T23:47:27.477Z,81.20
2023-02-07T23:49:59.258Z,80.35
2023-02-07T23:52:34.208Z,78.63
2023-02-07T23:55:05.727Z,81.32
2023-02-07T23:57:37.685Z,83.82
